Time;durP1;ratioP1;P1;durP2;ratioP2;P2;SDS_P1;SDS_P2;PMS_P1;PMS_P2;Temp;Humidity;BMP_temperature;BMP_pressure;BME280_temperature;BME280_humidity;BME280_pressure;Samples;Min_cycle;Max_cycle;Signal;HPM_P1;HPM_P2
2022/08/17 00:02:18;;;;;;;7.47;6.70;;;;;;;;;;5093941;28;20443;-74
2022/08/17 00:04:45;;;;;;;7.60;7.00;;;;;;;;;;5090357;28;20542;-75
2022/08/17 00:07:12;;;;;;;7.43;6.50;;;;;;;;;;5092004;28;20910;-75
2022/08/17 00:09:40;;;;;;;7.10;6.40;;;;;;;;;;5094373;28;20510;-74
2022/08/17 00:12:07;;;;;;;7.80;7.10;;;;;;;;;;5094310;28;20946;-74
2022/08/17 00:14:36;;;;;;;9.37;6.43;;;;;;;;;;5094223;28;20463;-74
2022/08/17 00:17:05;;;;;;;10.43;7.00;;;;;;;;;;5076738;28;20979;-74
2022/08/17 00:19:33;;;;;;;8.60;6.60;;;;;;;;;;5095113;28;20443;-73
2022/08/17 00:22:01;;;;;;;8.00;6.47;;;;;;;;;;5095288;28;20447;-73
2022/08/17 00:24:29;;;;;;;11.63;6.77;;;;;;;;;;5093696;28;20916;-73
2022/08/17 00:26:57;;;;;;;7.37;6.67;;;;;;;;;;5071672;28;20785;-73
2022/08/17 00:29:24;;;;;;;7.40;6.63;;;;;;;;;;5073524;28;20443;-73
2022/08/17 00:31:53;;;;;;;6.60;6.00;;;;;;;;;;5094291;28;20514;-73
2022/08/17 00:34:20;;;;;;;6.03;5.43;;;;;;;;;;5093924;28;20475;-74
2022/08/17 00:36:47;;;;;;;6.93;5.80;;;;;;;;;;5093973;28;20485;-73
2022/08/17 00:39:14;;;;;;;6.27;5.77;;;;;;;;;;5094400;28;20435;-74
2022/08/17 00:41:42;;;;;;;6.03;5.47;;;;;;;;;;5094193;28;20562;-73
2022/08/17 00:44:10;;;;;;;5.80;5.10;;;;;;;;;;5096087;28;20443;-74
2022/08/17 00:46:40;;;;;;;6.40;5.13;;;;;;;;;;5093694;28;20466;-73
2022/08/17 00:49:10;;;;;;;5.90;5.40;;;;;;;;;;5089602;28;20427;-73
2022/08/17 00:51:42;;;;;;;4.47;4.10;;;;;;;;;;5090856;28;20952;-73
2022/08/17 00:54:11;;;;;;;6.07;4.50;;;;;;;;;;5093390;28;20492;-73
2022/08/17 00:56:42;;;;;;;5.10;4.57;;;;;;;;;;5093243;28;20496;-74
2022/08/17 00:59:10;;;;;;;5.90;4.90;;;;;;;;;;5093743;28;20440;-74
2022/08/17 01:01:38;;;;;;;4.67;4.23;;;;;;;;;;5076156;28;20439;-73
2022/08/17 01:04:06;;;;;;;5.07;4.67;;;;;;;;;;5094411;28;20451;-74
2022/08/17 01:06:34;;;;;;;8.00;4.30;;;;;;;;;;5095343;28;20874;-73
2022/08/17 01:09:03;;;;;;;5.00;4.50;;;;;;;;;;5093298;28;20621;-74
2022/08/17 01:11:30;;;;;;;4.70;4.10;;;;;;;;;;5071101;28;20788;-73
2022/08/17 01:13:58;;;;;;;5.03;4.53;;;;;;;;;;5090656;28;20796;-73
2022/08/17 01:16:26;;;;;;;4.47;4.10;;;;;;;;;;5092936;28;20550;-74
2022/08/17 01:18:54;;;;;;;4.50;4.10;;;;;;;;;;5092891;28;20565;-74
2022/08/17 01:21:25;;;;;;;6.00;4.43;;;;;;;;;;5092971;28;20443;-73
2022/08/17 01:23:53;;;;;;;6.40;4.13;;;;;;;;;;5093525;28;20807;-73
2022/08/17 01:26:21;;;;;;;4.70;4.30;;;;;;;;;;5075793;28;20479;-73
2022/08/17 01:28:49;;;;;;;4.60;4.20;;;;;;;;;;5095075;28;20447;-73
2022/08/17 01:31:16;;;;;;;4.37;3.97;;;;;;;;;;5092855;28;20489;-73
2022/08/17 01:33:43;;;;;;;5.77;4.40;;;;;;;;;;5088755;28;20532;-74
2022/08/17 01:36:11;;;;;;;4.20;3.80;;;;;;;;;;5089963;28;20827;-74
2022/08/17 01:38:39;;;;;;;7.40;4.03;;;;;;;;;;5092469;28;20483;-73
2022/08/17 01:41:10;;;;;;;4.67;4.27;;;;;;;;;;5092398;28;20471;-73
2022/08/17 01:43:40;;;;;;;4.33;3.93;;;;;;;;;;5092729;28;20505;-73
2022/08/17 01:46:07;;;;;;;6.50;4.00;;;;;;;;;;5092863;28;20546;-73
2022/08/17 01:48:36;;;;;;;4.70;4.30;;;;;;;;;;5093117;28;20459;-74
2022/08/17 01:51:04;;;;;;;5.67;4.30;;;;;;;;;;5094728;28;21010;-74
2022/08/17 01:53:33;;;;;;;4.50;4.10;;;;;;;;;;5092420;28;20859;-74
2022/08/17 01:56:01;;;;;;;4.20;3.73;;;;;;;;;;5088307;28;20533;-74
2022/08/17 01:58:30;;;;;;;5.10;4.70;;;;;;;;;;5089798;28;20914;-74
2022/08/17 02:00:57;;;;;;;6.10;4.10;;;;;;;;;;5091942;28;20435;-75
2022/08/17 02:03:25;;;;;;;5.07;4.50;;;;;;;;;;5092197;28;20527;-73
2022/08/17 02:05:53;;;;;;;5.07;4.57;;;;;;;;;;5074237;28;20463;-75
2022/08/17 02:08:21;;;;;;;4.83;4.33;;;;;;;;;;5092594;28;20439;-73
2022/08/17 02:10:50;;;;;;;4.40;4.00;;;;;;;;;;5092785;28;20463;-73
2022/08/17 02:13:18;;;;;;;5.27;4.13;;;;;;;;;;5076413;28;20443;-74
2022/08/17 02:15:46;;;;;;;5.63;4.13;;;;;;;;;;5091784;28;20463;-73
2022/08/17 02:18:14;;;;;;;5.00;4.50;;;;;;;;;;5087933;28;20482;-74
2022/08/17 02:20:42;;;;;;;4.67;4.27;;;;;;;;;;5089302;28;20442;-74
2022/08/17 02:23:10;;;;;;;4.80;4.33;;;;;;;;;;5091726;28;20443;-74
2022/08/17 02:25:39;;;;;;;4.40;4.00;;;;;;;;;;5091580;28;21021;-74
2022/08/17 02:28:06;;;;;;;4.80;4.40;;;;;;;;;;5091697;28;20865;-73
2022/08/17 02:30:33;;;;;;;5.00;4.50;;;;;;;;;;5092408;28;20792;-73
2022/08/17 02:33:02;;;;;;;4.43;4.00;;;;;;;;;;5092535;28;20451;-73
2022/08/17 02:35:29;;;;;;;5.00;4.23;;;;;;;;;;5094042;28;20550;-73
2022/08/17 02:37:57;;;;;;;4.40;4.03;;;;;;;;;;5091906;28;20562;-73
2022/08/17 02:40:24;;;;;;;4.93;4.43;;;;;;;;;;5087504;28;20464;-73
2022/08/17 02:42:51;;;;;;;4.80;4.40;;;;;;;;;;5088697;28;20796;-74
2022/08/17 02:45:19;;;;;;;4.20;3.90;;;;;;;;;;5090920;28;21003;-75
2022/08/17 02:47:47;;;;;;;5.27;4.77;;;;;;;;;;5073620;28;20554;-74
2022/08/17 02:50:16;;;;;;;4.73;4.33;;;;;;;;;;5091497;28;21019;-76
2022/08/17 02:52:45;;;;;;;4.63;4.23;;;;;;;;;;5091845;28;20823;-74
2022/08/17 02:55:13;;;;;;;5.47;4.97;;;;;;;;;;5091872;28;20562;-73
2022/08/17 02:57:40;;;;;;;5.10;4.60;;;;;;;;;;5075700;28;20482;-75
2022/08/17 03:00:09;;;;;;;5.17;4.67;;;;;;;;;;5091788;28;20428;-75
2022/08/17 03:02:38;;;;;;;4.80;4.40;;;;;;;;;;5068899;28;20446;-73
2022/08/17 03:05:06;;;;;;;5.23;4.40;;;;;;;;;;5088508;28;20458;-73
2022/08/17 03:07:34;;;;;;;4.77;4.17;;;;;;;;;;5091577;28;20443;-73
2022/08/17 03:10:01;;;;;;;5.37;4.97;;;;;;;;;;5073665;28;20438;-73
2022/08/17 03:12:29;;;;;;;5.13;4.60;;;;;;;;;;5091550;28;20439;-72
2022/08/17 03:14:57;;;;;;;4.70;4.30;;;;;;;;;;5074074;28;20459;-74
2022/08/17 03:17:24;;;;;;;5.40;5.00;;;;;;;;;;5091804;28;20448;-73
2022/08/17 03:19:51;;;;;;;5.20;4.70;;;;;;;;;;5093399;28;20538;-73
2022/08/17 03:22:19;;;;;;;5.00;4.57;;;;;;;;;;5091508;28;20897;-73
2022/08/17 03:24:47;;;;;;;5.07;4.67;;;;;;;;;;5087167;28;20455;-73
2022/08/17 03:27:14;;;;;;;5.07;4.50;;;;;;;;;;5088240;28;21055;-74
2022/08/17 03:29:41;;;;;;;4.17;3.80;;;;;;;;;;5091089;28;20454;-72
2022/08/17 03:32:12;;;;;;;4.90;4.50;;;;;;;;;;5091187;28;20534;-72
2022/08/17 03:34:39;;;;;;;5.20;4.50;;;;;;;;;;5091134;28;20473;-74
2022/08/17 03:37:07;;;;;;;5.30;4.87;;;;;;;;;;5091853;28;20819;-74
2022/08/17 03:39:34;;;;;;;6.40;5.17;;;;;;;;;;5091597;28;20485;-73
2022/08/17 03:42:04;;;;;;;5.17;4.63;;;;;;;;;;5075263;28;20467;-73
2022/08/17 03:44:31;;;;;;;5.30;4.80;;;;;;;;;;5091649;28;20452;-73
2022/08/17 03:57:44;;;;;;;5.80;4.93;;;;;;;;;;5093785;28;20491;-74
2022/08/17 04:00:12;;;;;;;4.97;4.47;;;;;;;;;;5094951;28;20788;-73
2022/08/17 04:02:40;;;;;;;5.13;4.63;;;;;;;;;;5095918;28;20802;-75
2022/08/17 04:05:08;;;;;;;5.53;5.07;;;;;;;;;;5096579;28;20834;-75
2022/08/17 04:07:35;;;;;;;5.90;4.60;;;;;;;;;;5092976;28;20431;-74
2022/08/17 04:10:03;;;;;;;4.97;4.57;;;;;;;;;;5090173;28;20423;-72
2022/08/17 04:12:42;;;;;;;5.53;5.03;;;;;;;;;;5092576;28;20471;-74
2022/08/17 04:15:12;;;;;;;5.80;5.13;;;;;;;;;;5094119;28;20546;-72
2022/08/17 04:17:39;;;;;;;5.47;4.97;;;;;;;;;;5094440;28;20447;-74
2022/08/17 04:20:07;;;;;;;6.10;5.37;;;;;;;;;;5094838;28;20920;-74
2022/08/17 04:22:34;;;;;;;4.67;4.23;;;;;;;;;;5076054;28;20928;-72
2022/08/17 04:25:03;;;;;;;6.87;4.80;;;;;;;;;;5095627;28;20568;-73
2022/08/17 04:27:30;;;;;;;4.83;4.43;;;;;;;;;;5096534;28;20526;-72
2022/08/17 04:29:58;;;;;;;4.97;4.57;;;;;;;;;;5092312;28;20443;-73
2022/08/17 04:32:27;;;;;;;5.47;4.97;;;;;;;;;;5071444;28;20447;-75
2022/08/17 04:34:54;;;;;;;5.77;5.00;;;;;;;;;;5092482;28;20818;-73
2022/08/17 04:37:21;;;;;;;4.80;4.40;;;;;;;;;;5093510;28;20505;-74
2022/08/17 04:42:05;;;;;;;4.87;4.43;;;;;;;;;;5093994;28;20483;-73
2022/08/17 04:42:36;;;;;;;5.60;5.00;;;;;;;;;;5078984;28;20463;-73
2022/08/17 04:45:03;;;;;;;6.80;4.90;;;;;;;;;;5093194;28;20585;-74
2022/08/17 04:47:32;;;;;;;5.43;5.03;;;;;;;;;;5095813;28;20534;-74
2022/08/17 04:50:01;;;;;;;5.17;4.67;;;;;;;;;;5096101;28;21112;-73
2022/08/17 04:52:28;;;;;;;5.20;4.70;;;;;;;;;;5091277;28;20524;-73
2022/08/17 04:54:55;;;;;;;5.17;4.67;;;;;;;;;;5089346;28;20459;-74
2022/08/17 04:57:22;;;;;;;5.20;4.70;;;;;;;;;;5092522;28;20438;-74
2022/08/17 04:59:50;;;;;;;4.80;4.33;;;;;;;;;;5093280;28;20487;-75
2022/08/17 05:02:17;;;;;;;5.13;4.60;;;;;;;;;;5093526;28;20448;-74
2022/08/17 05:04:45;;;;;;;5.20;4.80;;;;;;;;;;5094105;28;20479;-74
2022/08/17 05:07:12;;;;;;;4.87;4.40;;;;;;;;;;5092798;28;20478;-73
2022/08/17 05:09:40;;;;;;;5.73;4.20;;;;;;;;;;5095332;28;20890;-73
2022/08/17 05:12:07;;;;;;;4.87;4.37;;;;;;;;;;5095425;28;20439;-73
2022/08/17 05:14:34;;;;;;;3.93;3.60;;;;;;;;;;5090919;28;20462;-73
2022/08/17 05:17:02;;;;;;;4.93;4.43;;;;;;;;;;5089174;28;21259;-73
2022/08/17 05:19:29;;;;;;;4.70;4.30;;;;;;;;;;5091844;28;20578;-73
2022/08/17 05:21:57;;;;;;;4.37;3.97;;;;;;;;;;5092782;28;20439;-74
2022/08/17 05:24:25;;;;;;;4.67;4.27;;;;;;;;;;5092983;28;20534;-73
2022/08/17 05:26:52;;;;;;;4.90;4.40;;;;;;;;;;5093464;28;20483;-74
2022/08/17 05:29:19;;;;;;;6.10;4.43;;;;;;;;;;5092709;28;20804;-75
2022/08/17 05:31:46;;;;;;;4.83;3.77;;;;;;;;;;5094173;28;20542;-73
2022/08/17 05:34:13;;;;;;;7.40;4.00;;;;;;;;;;5095132;28;20471;-74
2022/08/17 05:36:41;;;;;;;4.80;4.30;;;;;;;;;;5090875;28;20440;-73
2022/08/17 05:39:09;;;;;;;4.80;4.27;;;;;;;;;;5088455;28;21060;-74
2022/08/17 05:41:36;;;;;;;4.40;4.10;;;;;;;;;;5091306;28;20491;-73
2022/08/17 05:44:04;;;;;;;4.10;3.80;;;;;;;;;;5092249;28;20549;-72
2022/08/17 05:46:33;;;;;;;4.70;4.30;;;;;;;;;;5092679;28;20460;-73
2022/08/17 05:49:03;;;;;;;4.43;4.03;;;;;;;;;;5093219;28;20451;-73
2022/08/17 05:51:38;;;;;;;4.70;3.33;;;;;;;;;;5074580;28;20439;-74
2022/08/17 05:54:10;;;;;;;4.10;3.73;;;;;;;;;;5074433;28;20538;-73
2022/08/17 05:56:48;;;;;;;4.20;3.80;;;;;;;;;;5056936;28;20532;-75
2022/08/17 05:59:18;;;;;;;4.17;3.77;;;;;;;;;;5086531;28;20568;-74
2022/08/17 06:01:50;;;;;;;5.37;4.87;;;;;;;;;;5069912;28;20442;-73
2022/08/17 06:04:24;;;;;;;5.30;4.80;;;;;;;;;;5071348;28;20539;-74
2022/08/17 06:06:56;;;;;;;5.23;4.63;;;;;;;;;;5071503;28;20436;-74
2022/08/17 06:09:32;;;;;;;5.27;4.30;;;;;;;;;;5071203;28;20543;-74
2022/08/17 06:12:07;;;;;;;11.40;5.40;;;;;;;;;;5080072;28;20542;-74
2022/08/17 06:14:42;;;;;;;6.93;5.07;;;;;;;;;;5084204;28;20471;-73
2022/08/17 06:17:14;;;;;;;7.20;4.90;;;;;;;;;;5084360;28;20427;-74
2022/08/17 06:19:43;;;;;;;5.30;4.90;;;;;;;;;;5085320;28;21005;-74
2022/08/17 06:22:12;;;;;;;5.27;4.80;;;;;;;;;;5089013;28;20884;-75
2022/08/17 06:24:41;;;;;;;7.80;5.07;;;;;;;;;;5089635;28;20455;-74
2022/08/17 06:27:14;;;;;;;6.33;5.47;;;;;;;;;;5072247;28;20475;-76
2022/08/17 06:29:46;;;;;;;6.07;4.90;;;;;;;;;;5090674;28;20440;-74
2022/08/17 06:32:15;;;;;;;8.13;5.77;;;;;;;;;;5090062;28;20547;-77
2022/08/17 06:34:43;;;;;;;8.73;5.10;;;;;;;;;;5093167;28;20486;-73
2022/08/17 06:37:17;;;;;;;7.87;6.00;;;;;;;;;;5094027;28;20645;-73
2022/08/17 06:39:49;;;;;;;6.00;5.30;;;;;;;;;;5088117;28;20590;-72
2022/08/17 06:42:24;;;;;;;10.00;6.20;;;;;;;;;;5086170;28;20508;-75
2022/08/17 06:44:54;;;;;;;14.13;5.73;;;;;;;;;;5091155;28;21040;-71
2022/08/17 06:47:25;;;;;;;7.60;5.50;;;;;;;;;;5091576;28;20546;-73
2022/08/17 06:49:56;;;;;;;7.67;6.30;;;;;;;;;;5091736;28;20534;-72
2022/08/17 06:52:25;;;;;;;6.40;5.63;;;;;;;;;;5092138;28;20439;-74
2022/08/17 06:54:55;;;;;;;6.90;5.47;;;;;;;;;;5091306;28;20872;-74
2022/08/17 06:57:27;;;;;;;7.07;5.60;;;;;;;;;;5093870;28;20441;-72
2022/08/17 06:59:56;;;;;;;7.23;5.57;;;;;;;;;;5093711;28;20490;-74
2022/08/17 07:02:30;;;;;;;8.13;5.37;;;;;;;;;;5088415;28;20440;-72
2022/08/17 07:05:00;;;;;;;6.60;4.80;;;;;;;;;;5087782;28;20454;-73
2022/08/17 07:10:09;;;;;;;11.03;5.30;;;;;;;;;;5090146;28;20436;-71
2022/08/17 07:12:40;;;;;;;6.10;5.50;;;;;;;;;;5091712;28;20530;-73
2022/08/17 07:15:11;;;;;;;6.17;5.53;;;;;;;;;;5091711;28;21027;-72
2022/08/17 07:17:38;;;;;;;8.13;6.03;;;;;;;;;;5091620;28;20463;-72
2022/08/17 07:20:08;;;;;;;6.60;5.60;;;;;;;;;;5075826;28;20487;-75
2022/08/17 07:22:40;;;;;;;10.33;6.00;;;;;;;;;;5093394;28;20912;-75
2022/08/17 07:25:08;;;;;;;6.33;5.73;;;;;;;;;;5087558;28;20530;-73
2022/08/17 07:27:38;;;;;;;7.20;5.97;;;;;;;;;;5088232;28;20849;-75
2022/08/17 07:30:07;;;;;;;8.47;5.73;;;;;;;;;;5090420;28;20530;-73
2022/08/17 07:32:36;;;;;;;5.97;5.33;;;;;;;;;;5077149;28;20526;-74
2022/08/17 07:35:11;;;;;;;9.03;5.47;;;;;;;;;;5095413;28;20546;-73
2022/08/17 07:37:39;;;;;;;6.33;5.67;;;;;;;;;;5095775;28;20461;-73
2022/08/17 07:40:15;;;;;;;7.10;6.40;;;;;;;;;;5077961;28;21034;-72
2022/08/17 07:43:00;;;;;;;9.87;7.53;;;;;;;;;;5059351;28;20538;-74
2022/08/17 07:50:52;;;;;;;10.63;7.47;;;;;;;;;;5055905;28;20424;-76
2022/08/17 07:53:21;;;;;;;7.53;6.63;;;;;;;;;;5074486;28;20448;-76
2022/08/17 07:55:49;;;;;;;8.23;7.43;;;;;;;;;;5056855;28;20565;-74
2022/08/17 07:58:18;;;;;;;8.40;6.90;;;;;;;;;;5074677;28;20497;-74
2022/08/17 08:00:46;;;;;;;9.70;8.13;;;;;;;;;;5057295;28;20513;-75
2022/08/17 08:03:16;;;;;;;8.23;7.43;;;;;;;;;;5057845;28;20551;-74
2022/08/17 08:05:52;;;;;;;10.10;8.87;;;;;;;;;;5076482;28;20976;-76
2022/08/17 08:08:25;;;;;;;9.00;8.00;;;;;;;;;;5074724;28;20526;-74
2022/08/17 08:10:58;;;;;;;10.27;7.97;;;;;;;;;;5052096;28;20806;-74
2022/08/17 08:13:28;;;;;;;9.70;8.10;;;;;;;;;;5053941;28;20451;-75
2022/08/17 08:15:57;;;;;;;10.73;9.73;;;;;;;;;;5056332;28;20468;-76
2022/08/17 08:18:25;;;;;;;10.87;9.87;;;;;;;;;;5056554;28;20538;-75
2022/08/17 08:20:55;;;;;;;9.27;8.43;;;;;;;;;;5056673;28;20570;-74
2022/08/17 08:23:28;;;;;;;9.47;8.30;;;;;;;;;;5056912;28;20444;-78
2022/08/17 08:26:02;;;;;;;10.33;9.30;;;;;;;;;;5075114;28;20500;-75
2022/08/17 08:28:37;;;;;;;9.30;8.50;;;;;;;;;;5076183;28;20436;-74
2022/08/17 08:31:07;;;;;;;10.70;8.87;;;;;;;;;;5073621;28;20511;-74
2022/08/17 08:33:42;;;;;;;8.90;8.10;;;;;;;;;;5069712;28;20450;-73
2022/08/17 08:36:15;;;;;;;9.40;8.53;;;;;;;;;;5071836;28;20448;-74
2022/08/17 08:38:45;;;;;;;11.93;9.07;;;;;;;;;;5073648;28;20539;-76
2022/08/17 08:41:16;;;;;;;10.03;9.03;;;;;;;;;;5081457;28;20505;-73
2022/08/17 08:43:49;;;;;;;9.27;8.47;;;;;;;;;;5093551;28;20538;-75
2022/08/17 08:46:30;;;;;;;9.63;8.70;;;;;;;;;;5093751;28;20550;-74
2022/08/17 08:49:11;;;;;;;11.00;9.87;;;;;;;;;;5075751;28;20531;-73
2022/08/17 08:51:45;;;;;;;10.10;9.17;;;;;;;;;;5075617;28;20534;-74
2022/08/17 08:54:15;;;;;;;8.90;8.03;;;;;;;;;;5079532;28;20443;-74
2022/08/17 08:56:44;;;;;;;8.90;7.97;;;;;;;;;;5085594;28;20967;-73
2022/08/17 08:59:20;;;;;;;9.20;8.30;;;;;;;;;;5074263;28;20438;-73
2022/08/17 09:01:52;;;;;;;9.60;8.60;;;;;;;;;;5093035;28;20943;-74
2022/08/17 09:04:29;;;;;;;9.07;8.27;;;;;;;;;;5093629;28;21130;-74
2022/08/17 09:07:02;;;;;;;9.80;8.80;;;;;;;;;;5094130;28;20441;-75
2022/08/17 09:09:37;;;;;;;13.80;8.90;;;;;;;;;;5093288;28;20447;-74
2022/08/17 09:12:09;;;;;;;10.30;9.13;;;;;;;;;;5095457;28;20439;-73
2022/08/17 09:14:39;;;;;;;9.77;8.50;;;;;;;;;;5095463;28;20462;-75
2022/08/17 09:17:11;;;;;;;10.10;9.10;;;;;;;;;;5071052;28;20436;-74
2022/08/17 09:19:41;;;;;;;9.27;8.37;;;;;;;;;;5089634;28;20483;-72
2022/08/17 09:22:16;;;;;;;9.50;8.60;;;;;;;;;;5092438;28;20795;-73
2022/08/17 09:24:46;;;;;;;10.37;9.37;;;;;;;;;;5092670;28;20470;-75
2022/08/17 09:27:17;;;;;;;11.23;10.13;;;;;;;;;;5075298;28;20442;-73
2022/08/17 09:29:48;;;;;;;12.47;10.60;;;;;;;;;;5093497;28;20443;-77
2022/08/17 09:32:17;;;;;;;11.27;10.20;;;;;;;;;;5093430;28;20554;-74
2022/08/17 09:34:51;;;;;;;10.80;9.80;;;;;;;;;;5095075;28;20813;-77
2022/08/17 09:37:20;;;;;;;10.83;9.73;;;;;;;;;;5094297;28;20435;-75
2022/08/17 09:39:51;;;;;;;10.43;9.50;;;;;;;;;;5070039;28;20566;-76
2022/08/17 09:42:21;;;;;;;9.90;8.97;;;;;;;;;;5089226;28;20813;-76
2022/08/17 09:44:54;;;;;;;10.83;9.03;;;;;;;;;;5074076;28;20481;-75
2022/08/17 09:47:25;;;;;;;9.77;8.77;;;;;;;;;;5092016;28;20475;-74
2022/08/17 09:49:54;;;;;;;10.70;9.70;;;;;;;;;;5092208;28;20438;-76
2022/08/17 09:52:23;;;;;;;10.43;9.50;;;;;;;;;;5092963;28;20558;-73
2022/08/17 09:54:52;;;;;;;10.17;9.17;;;;;;;;;;5074820;28;21002;-75
2022/08/17 09:57:24;;;;;;;10.80;9.33;;;;;;;;;;5094413;28;20855;-74
2022/08/17 09:59:58;;;;;;;10.00;8.97;;;;;;;;;;5093669;28;20566;-75
2022/08/17 10:02:33;;;;;;;9.90;9.00;;;;;;;;;;5087714;28;20441;-74
2022/08/17 10:05:03;;;;;;;11.13;10.13;;;;;;;;;;5088723;28;20878;-75
2022/08/17 10:07:33;;;;;;;11.60;10.50;;;;;;;;;;5092134;28;20690;-76
2022/08/17 10:10:03;;;;;;;10.17;9.17;;;;;;;;;;5091941;28;20571;-75
2022/08/17 10:12:36;;;;;;;10.93;9.93;;;;;;;;;;5092033;28;20475;-76
2022/08/17 10:15:12;;;;;;;13.50;10.40;;;;;;;;;;5092490;28;20490;-76
2022/08/17 10:17:43;;;;;;;11.43;10.33;;;;;;;;;;5083339;28;20458;-75
2022/08/17 10:20:13;;;;;;;10.73;9.63;;;;;;;;;;5086942;28;20974;-73
2022/08/17 10:28:07;;;;;;;9.90;8.90;;;;;;;;;;5088501;28;20431;-74
2022/08/17 10:30:38;;;;;;;10.33;8.60;;;;;;;;;;5072293;28;20450;-75
2022/08/17 10:33:07;;;;;;;13.43;9.10;;;;;;;;;;5090218;28;20846;-75
2022/08/17 10:35:39;;;;;;;11.20;10.10;;;;;;;;;;5090359;28;20562;-74
2022/08/17 10:38:18;;;;;;;10.50;9.40;;;;;;;;;;5094021;28;20530;-74
2022/08/17 10:40:49;;;;;;;10.67;9.73;;;;;;;;;;5093700;28;20482;-73
2022/08/17 10:43:21;;;;;;;10.60;9.60;;;;;;;;;;5087865;28;20523;-73
2022/08/17 10:45:53;;;;;;;11.00;10.00;;;;;;;;;;5087855;28;20483;-74
2022/08/17 10:48:26;;;;;;;10.10;9.20;;;;;;;;;;5090553;28;20838;-73
2022/08/17 10:50:59;;;;;;;9.73;8.73;;;;;;;;;;5073176;28;20439;-75
2022/08/17 10:53:42;;;;;;;10.80;9.20;;;;;;;;;;5091403;28;20881;-74
2022/08/17 10:56:20;;;;;;;11.70;9.73;;;;;;;;;;5091144;28;20666;-74
2022/08/17 10:58:49;;;;;;;10.10;9.10;;;;;;;;;;5091907;28;20495;-74
2022/08/17 11:01:18;;;;;;;9.00;8.10;;;;;;;;;;5075562;28;20479;-75
2022/08/17 11:03:53;;;;;;;9.47;8.57;;;;;;;;;;5093118;28;20443;-73
2022/08/17 11:06:24;;;;;;;9.80;9.00;;;;;;;;;;5086306;28;20849;-73
2022/08/17 11:09:00;;;;;;;10.03;9.10;;;;;;;;;;5088032;28;20507;-74
2022/08/17 11:11:44;;;;;;;10.33;9.43;;;;;;;;;;5091073;28;20885;-73
2022/08/17 11:14:19;;;;;;;11.30;10.20;;;;;;;;;;5075285;28;20467;-76
2022/08/17 11:16:52;;;;;;;10.70;9.60;;;;;;;;;;5091137;28;20863;-72
2022/08/17 11:19:34;;;;;;;10.77;9.83;;;;;;;;;;5091295;28;20924;-73
2022/08/17 11:22:07;;;;;;;15.37;10.03;;;;;;;;;;5076682;28;20482;-72
2022/08/17 11:24:36;;;;;;;11.33;9.20;;;;;;;;;;5075281;28;20459;-72
2022/08/17 11:27:06;;;;;;;11.63;10.53;;;;;;;;;;5074298;28;20531;-73
2022/08/17 11:29:36;;;;;;;12.07;10.97;;;;;;;;;;5068479;28;20614;-74
2022/08/17 11:32:11;;;;;;;11.03;10.03;;;;;;;;;;5085700;28;20561;-79
2022/08/17 11:34:40;;;;;;;13.03;10.43;;;;;;;;;;5070028;28;20879;-80
2022/08/17 11:37:15;;;;;;;11.20;10.10;;;;;;;;;;5087268;28;20435;-76
2022/08/17 11:39:50;;;;;;;11.93;10.83;;;;;;;;;;5087145;28;20541;-75
2022/08/17 11:42:25;;;;;;;11.70;10.60;;;;;;;;;;5087086;28;20463;-74
2022/08/17 11:44:54;;;;;;;11.93;10.93;;;;;;;;;;5087529;28;20577;-75
2022/08/17 11:52:59;;;;;;;11.73;10.63;;;;;;;;;;5086521;28;20447;-75
2022/08/17 11:55:41;;;;;;;13.33;11.93;;;;;;;;;;5087358;28;20541;-73
2022/08/17 11:58:33;;;;;;;11.33;10.43;;;;;;;;;;5071637;28;20439;-75
2022/08/17 12:01:00;;;;;;;12.57;11.27;;;;;;;;;;5087215;28;20745;-74
2022/08/17 12:03:42;;;;;;;13.43;12.30;;;;;;;;;;5088406;28;20455;-75
2022/08/17 12:06:26;;;;;;;13.17;12.00;;;;;;;;;;5073104;28;20862;-74
2022/08/17 12:08:56;;;;;;;12.07;10.80;;;;;;;;;;5086849;28;20459;-77
2022/08/17 12:11:26;;;;;;;11.80;10.60;;;;;;;;;;5086177;28;20431;-74
2022/08/17 12:13:57;;;;;;;13.20;11.90;;;;;;;;;;5088793;28;20545;-74
2022/08/17 12:16:24;;;;;;;13.03;11.80;;;;;;;;;;5090503;28;20850;-75
2022/08/17 12:18:53;;;;;;;12.87;11.70;;;;;;;;;;5093028;28;20538;-74
2022/08/17 12:21:23;;;;;;;12.30;11.20;;;;;;;;;;5076605;28;20566;-73
2022/08/17 12:23:56;;;;;;;12.77;11.57;;;;;;;;;;5093963;28;20518;-74
2022/08/17 12:26:26;;;;;;;13.77;11.80;;;;;;;;;;5095634;28;20471;-73
2022/08/17 12:28:57;;;;;;;13.60;12.43;;;;;;;;;;5096246;28;20450;-74
2022/08/17 12:31:28;;;;;;;16.80;13.80;;;;;;;;;;5093341;28;20419;-78
2022/08/17 12:33:55;;;;;;;11.80;10.60;;;;;;;;;;5089681;28;20444;-72
2022/08/17 12:36:24;;;;;;;11.63;10.73;;;;;;;;;;5091568;28;20542;-72
2022/08/17 12:38:53;;;;;;;12.60;11.40;;;;;;;;;;5075958;28;20917;-72
2022/08/17 12:41:34;;;;;;;12.73;11.57;;;;;;;;;;5075421;28;21071;-74
2022/08/17 12:44:06;;;;;;;13.07;11.97;;;;;;;;;;5078506;28;20436;-72
2022/08/17 12:46:34;;;;;;;10.93;10.03;;;;;;;;;;5094259;28;20810;-76
2022/08/17 12:49:18;;;;;;;13.50;12.30;;;;;;;;;;5095094;28;20542;-74
2022/08/17 12:51:46;;;;;;;13.30;12.10;;;;;;;;;;5080447;28;20446;-79
2022/08/17 12:54:22;;;;;;;13.30;11.90;;;;;;;;;;5092247;28;20570;-76
2022/08/17 12:56:50;;;;;;;12.63;11.47;;;;;;;;;;5070709;28;20522;-72
2022/08/17 12:59:19;;;;;;;11.20;10.20;;;;;;;;;;5091591;28;20445;-73
2022/08/17 13:01:47;;;;;;;14.40;12.90;;;;;;;;;;5093278;28;20590;-71
2022/08/17 13:04:15;;;;;;;13.33;12.03;;;;;;;;;;5093155;28;20537;-75
2022/08/17 13:06:47;;;;;;;13.00;11.93;;;;;;;;;;5094007;28;20876;-76
2022/08/17 13:09:18;;;;;;;12.87;11.67;;;;;;;;;;5093163;28;20439;-76
2022/08/17 13:11:48;;;;;;;13.60;12.20;;;;;;;;;;5057572;28;20979;-74
2022/08/17 13:14:17;;;;;;;13.03;10.67;;;;;;;;;;5057693;28;20432;-75
2022/08/17 13:16:49;;;;;;;10.50;9.60;;;;;;;;;;5083218;28;20448;-75
2022/08/17 13:19:20;;;;;;;13.27;12.17;;;;;;;;;;5070613;28;20522;-75
2022/08/17 13:21:49;;;;;;;13.20;12.10;;;;;;;;;;5091371;28;20975;-74
2022/08/17 13:24:18;;;;;;;14.37;13.00;;;;;;;;;;5092898;28;20966;-77
2022/08/17 13:26:46;;;;;;;12.47;11.53;;;;;;;;;;5093290;28;20439;-74
2022/08/17 13:29:22;;;;;;;11.30;10.30;;;;;;;;;;5093326;28;20443;-75
2022/08/17 13:31:52;;;;;;;15.23;12.13;;;;;;;;;;5075004;28;20443;-73
2022/08/17 13:34:34;;;;;;;16.90;15.50;;;;;;;;;;5077274;28;20534;-80
2022/08/17 13:37:16;;;;;;;13.93;11.73;;;;;;;;;;5077420;28;20492;-76
2022/08/17 13:39:44;;;;;;;13.47;12.10;;;;;;;;;;5074803;28;20907;-73
2022/08/17 13:42:26;;;;;;;11.30;10.30;;;;;;;;;;5070090;28;20831;-78
2022/08/17 13:44:53;;;;;;;12.50;11.40;;;;;;;;;;5076121;28;20465;-79
2022/08/17 13:47:23;;;;;;;12.67;11.50;;;;;;;;;;5092417;28;20522;-77
2022/08/17 13:49:51;;;;;;;12.30;11.30;;;;;;;;;;5092824;28;20450;-73
2022/08/17 13:52:33;;;;;;;10.90;9.93;;;;;;;;;;5075434;28;20542;-75
2022/08/17 13:55:01;;;;;;;13.87;12.50;;;;;;;;;;5076694;28;20908;-75
2022/08/17 13:57:28;;;;;;;14.03;12.63;;;;;;;;;;5088975;28;20427;-74
2022/08/17 13:59:58;;;;;;;14.03;12.73;;;;;;;;;;5089002;28;20434;-73
2022/08/17 14:02:27;;;;;;;13.37;12.00;;;;;;;;;;5091723;28;20479;-76
2022/08/17 14:04:54;;;;;;;14.53;13.23;;;;;;;;;;5092189;28;20463;-75
2022/08/17 14:07:26;;;;;;;13.50;12.27;;;;;;;;;;5092368;28;20441;-76
2022/08/17 14:09:54;;;;;;;14.40;13.10;;;;;;;;;;5092645;28;20530;-74
2022/08/17 14:12:23;;;;;;;15.20;13.80;;;;;;;;;;5074334;28;20454;-74
2022/08/17 14:14:51;;;;;;;13.73;12.30;;;;;;;;;;5094504;28;20466;-74
2022/08/17 14:17:18;;;;;;;12.40;11.40;;;;;;;;;;5076553;28;20875;-74
2022/08/17 14:19:47;;;;;;;14.23;12.83;;;;;;;;;;5070518;28;20432;-76
2022/08/17 14:22:18;;;;;;;14.00;12.70;;;;;;;;;;5087948;28;20874;-76
2022/08/17 14:24:46;;;;;;;12.43;11.13;;;;;;;;;;5091243;28;20562;-74
2022/08/17 14:27:15;;;;;;;16.43;14.67;;;;;;;;;;5092095;28;20454;-74
2022/08/17 14:29:42;;;;;;;13.30;12.07;;;;;;;;;;5092091;28;20463;-73
2022/08/17 14:32:15;;;;;;;12.83;11.80;;;;;;;;;;5092417;28;20534;-74
2022/08/17 14:34:44;;;;;;;16.10;14.80;;;;;;;;;;5091925;28;20561;-73
2022/08/17 14:37:12;;;;;;;14.37;13.00;;;;;;;;;;5094216;28;20920;-74
2022/08/17 14:39:39;;;;;;;15.40;14.07;;;;;;;;;;5094316;28;20989;-73
2022/08/17 14:42:07;;;;;;;16.50;14.90;;;;;;;;;;5087902;28;20471;-74
2022/08/17 14:44:35;;;;;;;16.30;14.70;;;;;;;;;;5087688;28;20454;-75
2022/08/17 14:47:03;;;;;;;14.93;13.63;;;;;;;;;;5091002;28;20959;-73
2022/08/17 14:49:30;;;;;;;14.70;13.40;;;;;;;;;;5091398;28;20966;-75
2022/08/17 14:51:58;;;;;;;14.83;13.50;;;;;;;;;;5073732;28;20439;-72
2022/08/17 14:54:26;;;;;;;14.17;12.87;;;;;;;;;;5092174;28;20846;-75
2022/08/17 14:56:53;;;;;;;15.47;13.97;;;;;;;;;;5091638;28;20522;-73
2022/08/17 14:59:21;;;;;;;14.40;12.87;;;;;;;;;;5093754;28;20518;-76
2022/08/17 15:01:48;;;;;;;14.10;12.90;;;;;;;;;;5093681;28;20569;-74
2022/08/17 15:04:17;;;;;;;12.77;11.57;;;;;;;;;;5089266;28;20518;-77
2022/08/17 15:06:46;;;;;;;20.07;18.00;;;;;;;;;;5087421;28;20432;-74
2022/08/17 15:09:13;;;;;;;21.83;19.97;;;;;;;;;;5072571;28;20939;-78
2022/08/17 15:11:42;;;;;;;16.43;14.93;;;;;;;;;;5091263;28;20537;-73
2022/08/17 15:14:09;;;;;;;19.70;16.87;;;;;;;;;;5091254;28;20939;-73
2022/08/17 15:16:37;;;;;;;18.70;16.90;;;;;;;;;;5091925;28;20546;-75
2022/08/17 15:19:05;;;;;;;19.23;16.90;;;;;;;;;;5073071;28;20537;-74
2022/08/17 15:21:35;;;;;;;15.70;14.20;;;;;;;;;;5075754;28;20478;-74